GLO312 SBSP-SBRJ
Flight info
| Callsign | GLO312 |
|---|---|
| Flight time | N/A |
| Altitude | 25000 |
| Route | NIBRU UZ171 KEVUN |
| Aircraft | B738/M-SDGIJ1LRWY/SB1 |
Departure
| Time | 2026-05-07 20:55 |
|---|---|
| Airport | Congonhas–Deputado Freitas Nobre Airport (SBSP) |
Arrival
| Time | N/A |
|---|---|
| Airport | Santos Dumont Airport (SBRJ) |
| Time | Latitude | Longitude | Altitude | Speed | Heading |
|---|---|---|---|---|---|
| 2026-05-07 20:29 | -23.62659 | -46.65858 | 2606 ft | 0 kts | 239° |
| 2026-05-07 20:46 | -23.62654 | -46.65848 | 2604 ft | 2 kts | 239° |
| 2026-05-07 20:47 | -23.62649 | -46.65839 | 2603 ft | 2 kts | 237° |
| 2026-05-07 20:47 | -23.62637 | -46.65830 | 2600 ft | 2 kts | 191° |
| 2026-05-07 20:47 | -23.62621 | -46.65831 | 2599 ft | 1 kts | 154° |
| 2026-05-07 20:47 | -23.62616 | -46.65835 | 2601 ft | 1 kts | 143° |
| 2026-05-07 20:48 | -23.62614 | -46.65837 | 2603 ft | 0 kts | 147° |
| 2026-05-07 20:49 | -23.62624 | -46.65830 | 2606 ft | 6 kts | 147° |
| 2026-05-07 20:50 | -23.62688 | -46.65786 | 2608 ft | 12 kts | 148° |
| 2026-05-07 20:50 | -23.62759 | -46.65738 | 2610 ft | 10 kts | 148° |
| 2026-05-07 20:50 | -23.62830 | -46.65688 | 2612 ft | 14 kts | 138° |
| 2026-05-07 20:50 | -23.62880 | -46.65608 | 2614 ft | 11 kts | 144° |
| 2026-05-07 20:51 | -23.62945 | -46.65563 | 2615 ft | 10 kts | 148° |
| 2026-05-07 20:51 | -23.63014 | -46.65524 | 2616 ft | 12 kts | 169° |
| 2026-05-07 20:51 | -23.63089 | -46.65498 | 2617 ft | 10 kts | 148° |
| 2026-05-07 20:51 | -23.63158 | -46.65451 | 2618 ft | 14 kts | 148° |
| 2026-05-07 20:52 | -23.63267 | -46.65375 | 2619 ft | 22 kts | 147° |
| 2026-05-07 20:52 | -23.63394 | -46.65287 | 2620 ft | 19 kts | 147° |
| 2026-05-07 20:52 | -23.63479 | -46.65228 | 2619 ft | 0 kts | 148° |
| 2026-05-07 20:52 | -23.63487 | -46.65222 | 2619 ft | 5 kts | 144° |
| 2026-05-07 20:53 | -23.63506 | -46.65181 | 2619 ft | 7 kts | 86° |
| 2026-05-07 20:53 | -23.63472 | -46.65137 | 2619 ft | 8 kts | 37° |
| 2026-05-07 20:53 | -23.63441 | -46.65113 | 2619 ft | 3 kts | 2° |
| 2026-05-07 20:53 | -23.63432 | -46.65118 | 2619 ft | 0 kts | 327° |
| 2026-05-07 20:54 | -23.63213 | -46.65268 | 2620 ft | 77 kts | 327° |
| 2026-05-07 20:54 | -23.62543 | -46.65735 | 2606 ft | 146 kts | 329° |
| 2026-05-07 20:54 | -23.61643 | -46.66349 | 3148 ft | 152 kts | 330° |
| 2026-05-07 20:55 | -23.60755 | -46.66924 | 3881 ft | 150 kts | 338° |
| 2026-05-07 20:55 | -23.59709 | -46.66965 | 4363 ft | 160 kts | 19° |
| 2026-05-07 20:55 | -23.58842 | -46.66175 | 4805 ft | 172 kts | 52° |
| 2026-05-07 20:55 | -23.58448 | -46.64858 | 5081 ft | 202 kts | 86° |
| 2026-05-07 20:56 | -23.58867 | -46.63290 | 5436 ft | 231 kts | 112° |
| 2026-05-07 20:56 | -23.59502 | -46.61554 | 5483 ft | 250 kts | 93° |
| 2026-05-07 20:56 | -23.59415 | -46.59664 | 5641 ft | 258 kts | 74° |
| 2026-05-07 20:56 | -23.59080 | -46.57668 | 6150 ft | 276 kts | 77° |
| 2026-05-07 20:57 | -23.58896 | -46.55543 | 6927 ft | 284 kts | 83° |
| 2026-05-07 20:57 | -23.58842 | -46.53370 | 7743 ft | 289 kts | 85° |
| 2026-05-07 20:57 | -23.58833 | -46.51173 | 8533 ft | 295 kts | 86° |
| 2026-05-07 20:57 | -23.58829 | -46.48954 | 9410 ft | 297 kts | 86° |
| 2026-05-07 20:58 | -23.58817 | -46.46678 | 10300 ft | 298 kts | 86° |
| 2026-05-07 20:58 | -23.58796 | -46.44382 | 10922 ft | 309 kts | 86° |
| 2026-05-07 20:58 | -23.58766 | -46.41993 | 11460 ft | 322 kts | 86° |
| 2026-05-07 20:58 | -23.58733 | -46.39489 | 11958 ft | 336 kts | 86° |
| 2026-05-07 20:59 | -23.58697 | -46.36889 | 12387 ft | 350 kts | 87° |
| 2026-05-07 20:59 | -23.58663 | -46.34189 | 12993 ft | 358 kts | 86° |
| 2026-05-07 20:59 | -23.58630 | -46.31468 | 13661 ft | 363 kts | 86° |
| 2026-05-07 20:59 | -23.58597 | -46.28703 | 14359 ft | 368 kts | 86° |
| 2026-05-07 21:00 | -23.58563 | -46.25887 | 15052 ft | 371 kts | 87° |
| 2026-05-07 21:00 | -23.58527 | -46.23094 | 15670 ft | 375 kts | 87° |
| 2026-05-07 21:00 | -23.58489 | -46.20245 | 16333 ft | 379 kts | 87° |
| 2026-05-07 21:00 | -23.58450 | -46.17339 | 16955 ft | 383 kts | 87° |
| 2026-05-07 21:01 | -23.58409 | -46.14422 | 17545 ft | 387 kts | 87° |
| 2026-05-07 21:01 | -23.58367 | -46.11498 | 18030 ft | 394 kts | 88° |
| 2026-05-07 21:01 | -23.58324 | -46.08488 | 18536 ft | 400 kts | 88° |
| 2026-05-07 21:01 | -23.58279 | -46.05443 | 19038 ft | 406 kts | 88° |
| 2026-05-07 21:02 | -23.58217 | -46.01303 | 19743 ft | 412 kts | 88° |
| 2026-05-07 21:02 | -23.58186 | -45.99233 | 20077 ft | 415 kts | 88° |
| 2026-05-07 21:02 | -23.58137 | -45.96042 | 20556 ft | 421 kts | 88° |
| 2026-05-07 21:02 | -23.58087 | -45.92855 | 21032 ft | 426 kts | 88° |
| 2026-05-07 21:03 | -23.58037 | -45.89593 | 21480 ft | 432 kts | 89° |
| 2026-05-07 21:03 | -23.57985 | -45.86316 | 21905 ft | 438 kts | 89° |
| 2026-05-07 21:03 | -23.57931 | -45.82950 | 22437 ft | 441 kts | 89° |
| 2026-05-07 21:03 | -23.57877 | -45.79626 | 22891 ft | 445 kts | 89° |
| 2026-05-07 21:04 | -23.57822 | -45.76242 | 23421 ft | 448 kts | 89° |
| 2026-05-07 21:04 | -23.57765 | -45.72823 | 24036 ft | 447 kts | 89° |
| 2026-05-07 21:04 | -23.57707 | -45.69436 | 24730 ft | 444 kts | 89° |
| 2026-05-07 21:04 | -23.57649 | -45.66079 | 25038 ft | 448 kts | 90° |
| 2026-05-07 21:05 | -23.57590 | -45.62699 | 25064 ft | 444 kts | 90° |
| 2026-05-07 21:05 | -23.57531 | -45.59335 | 25058 ft | 441 kts | 90° |
| 2026-05-07 21:05 | -23.57471 | -45.55978 | 25071 ft | 442 kts | 90° |
| 2026-05-07 21:05 | -23.57411 | -45.52623 | 25066 ft | 444 kts | 90° |
| 2026-05-07 21:06 | -23.57309 | -45.49238 | 25055 ft | 443 kts | 88° |
| 2026-05-07 21:06 | -23.57018 | -45.45932 | 25058 ft | 444 kts | 83° |
| 2026-05-07 21:06 | -23.56501 | -45.42601 | 25054 ft | 443 kts | 79° |
| 2026-05-07 21:06 | -23.55860 | -45.39318 | 25047 ft | 443 kts | 77° |
| 2026-05-07 21:07 | -23.55156 | -45.36027 | 25042 ft | 442 kts | 77° |
| 2026-05-07 21:07 | -23.54434 | -45.32767 | 25034 ft | 442 kts | 76° |
| 2026-05-07 21:07 | -23.53712 | -45.29526 | 25026 ft | 442 kts | 76° |
| 2026-05-07 21:07 | -23.52983 | -45.26237 | 25025 ft | 442 kts | 76° |
| 2026-05-07 21:08 | -23.52178 | -45.23006 | 25027 ft | 442 kts | 73° |
| 2026-05-07 21:08 | -23.51212 | -45.19830 | 25019 ft | 442 kts | 70° |
| 2026-05-07 21:08 | -23.50149 | -45.16658 | 25012 ft | 442 kts | 69° |
| 2026-05-07 21:08 | -23.49066 | -45.13533 | 25018 ft | 442 kts | 69° |
| 2026-05-07 21:09 | -23.47969 | -45.10371 | 25013 ft | 439 kts | 69° |
| 2026-05-07 21:09 | -23.46909 | -45.07283 | 25009 ft | 440 kts | 70° |
| 2026-05-07 21:09 | -23.45853 | -45.04167 | 25011 ft | 438 kts | 70° |
| 2026-05-07 21:09 | -23.44808 | -45.01047 | 25013 ft | 439 kts | 70° |
| 2026-05-07 21:10 | -23.43763 | -44.97903 | 25004 ft | 440 kts | 70° |
| 2026-05-07 21:10 | -23.42725 | -44.94761 | 25004 ft | 439 kts | 70° |
| 2026-05-07 21:10 | -23.41699 | -44.91644 | 25004 ft | 439 kts | 70° |
| 2026-05-07 21:10 | -23.40662 | -44.88488 | 25000 ft | 439 kts | 70° |
| 2026-05-07 21:11 | -23.39648 | -44.85398 | 25005 ft | 440 kts | 70° |
| 2026-05-07 21:11 | -23.38609 | -44.82232 | 25002 ft | 440 kts | 70° |
| 2026-05-07 21:11 | -23.36554 | -44.75977 | 24997 ft | 441 kts | 70° |
| 2026-05-07 21:12 | -23.35527 | -44.72855 | 24979 ft | 440 kts | 71° |
| 2026-05-07 21:12 | -23.34496 | -44.69723 | 24986 ft | 440 kts | 71° |
| 2026-05-07 21:12 | -23.33462 | -44.66585 | 24986 ft | 438 kts | 71° |
| 2026-05-07 21:12 | -23.32438 | -44.63478 | 24971 ft | 424 kts | 71° |
| 2026-05-07 21:13 | -23.31468 | -44.60541 | 24786 ft | 413 kts | 71° |
| 2026-05-07 21:13 | -23.30507 | -44.57629 | 24456 ft | 406 kts | 71° |
| 2026-05-07 21:13 | -23.29547 | -44.54719 | 24007 ft | 402 kts | 70° |
| 2026-05-07 21:13 | -23.28618 | -44.51909 | 23520 ft | 399 kts | 71° |
| 2026-05-07 21:14 | -23.27675 | -44.49056 | 23022 ft | 397 kts | 70° |
| 2026-05-07 21:14 | -23.26741 | -44.46231 | 22533 ft | 394 kts | 70° |
| 2026-05-07 21:14 | -23.25823 | -44.43459 | 22074 ft | 391 kts | 70° |
| 2026-05-07 21:14 | -23.24903 | -44.40684 | 21585 ft | 389 kts | 70° |
| 2026-05-07 21:15 | -23.23990 | -44.37932 | 21105 ft | 386 kts | 70° |
| 2026-05-07 21:15 | -23.23085 | -44.35204 | 20612 ft | 383 kts | 70° |
| 2026-05-07 21:15 | -23.22180 | -44.32478 | 20132 ft | 380 kts | 70° |
| 2026-05-07 21:15 | -23.21287 | -44.29791 | 19648 ft | 377 kts | 70° |
| 2026-05-07 21:16 | -23.20396 | -44.27112 | 19159 ft | 374 kts | 70° |
| 2026-05-07 21:16 | -23.19523 | -44.24488 | 18692 ft | 370 kts | 70° |
| 2026-05-07 21:16 | -23.18644 | -44.21846 | 18188 ft | 367 kts | 70° |
| 2026-05-07 21:16 | -23.17781 | -44.19248 | 17720 ft | 362 kts | 70° |
| 2026-05-07 21:17 | -23.16939 | -44.16715 | 17268 ft | 359 kts | 69° |
| 2026-05-07 21:17 | -23.16085 | -44.14150 | 16781 ft | 355 kts | 69° |
| 2026-05-07 21:17 | -23.15250 | -44.11644 | 16318 ft | 352 kts | 69° |
| 2026-05-07 21:17 | -23.14424 | -44.09172 | 15867 ft | 348 kts | 69° |
| 2026-05-07 21:18 | -23.13602 | -44.06715 | 15400 ft | 345 kts | 69° |
| 2026-05-07 21:18 | -23.12782 | -44.04264 | 14935 ft | 342 kts | 69° |
| 2026-05-07 21:18 | -23.11973 | -44.01848 | 14480 ft | 339 kts | 69° |
| 2026-05-07 21:18 | -23.11171 | -43.99450 | 14039 ft | 335 kts | 68° |
| 2026-05-07 21:19 | -23.10377 | -43.97077 | 13589 ft | 332 kts | 68° |
| 2026-05-07 21:19 | -23.09596 | -43.94745 | 13150 ft | 328 kts | 68° |
| 2026-05-07 21:19 | -23.08823 | -43.92439 | 12718 ft | 325 kts | 68° |
| 2026-05-07 21:19 | -23.08043 | -43.90114 | 12274 ft | 322 kts | 68° |
| 2026-05-07 21:20 | -23.07279 | -43.87838 | 11852 ft | 319 kts | 68° |
| 2026-05-07 21:20 | -23.06527 | -43.85598 | 11392 ft | 316 kts | 68° |
| 2026-05-07 21:20 | -23.05774 | -43.83358 | 10990 ft | 312 kts | 68° |
| 2026-05-07 21:20 | -23.05031 | -43.81151 | 10608 ft | 310 kts | 68° |
| 2026-05-07 21:21 | -23.04306 | -43.78995 | 10278 ft | 303 kts | 68° |
| 2026-05-07 21:21 | -23.03596 | -43.76880 | 10151 ft | 291 kts | 68° |
| 2026-05-07 21:21 | -23.02915 | -43.74852 | 10044 ft | 277 kts | 68° |
| 2026-05-07 21:21 | -23.02262 | -43.72912 | 9824 ft | 270 kts | 68° |
| 2026-05-07 21:22 | -23.01617 | -43.71001 | 9458 ft | 270 kts | 68° |
| 2026-05-07 21:22 | -23.00978 | -43.69109 | 9124 ft | 268 kts | 67° |
| 2026-05-07 21:22 | -23.00337 | -43.67212 | 8790 ft | 266 kts | 67° |
| 2026-05-07 21:22 | -22.99700 | -43.65323 | 8458 ft | 265 kts | 67° |
| 2026-05-07 21:23 | -22.99065 | -43.63443 | 8129 ft | 263 kts | 66° |
| 2026-05-07 21:23 | -22.98439 | -43.61589 | 7818 ft | 260 kts | 66° |
| 2026-05-07 21:23 | -22.97825 | -43.59769 | 7540 ft | 257 kts | 66° |
| 2026-05-07 21:23 | -22.97206 | -43.57939 | 7218 ft | 256 kts | 66° |
| 2026-05-07 21:24 | -22.96600 | -43.56149 | 6905 ft | 254 kts | 65° |
| 2026-05-07 21:24 | -22.95985 | -43.54333 | 6587 ft | 253 kts | 66° |
| 2026-05-07 21:24 | -22.95370 | -43.52520 | 6280 ft | 261 kts | 65° |
| 2026-05-07 21:24 | -22.94721 | -43.50651 | 6011 ft | 264 kts | 64° |
| 2026-05-07 21:25 | -22.93994 | -43.48816 | 5699 ft | 262 kts | 61° |
| 2026-05-07 21:25 | -22.93239 | -43.47074 | 5415 ft | 248 kts | 60° |
| 2026-05-07 21:25 | -22.92524 | -43.45439 | 5165 ft | 235 kts | 60° |
| 2026-05-07 21:25 | -22.91850 | -43.43874 | 4947 ft | 220 kts | 61° |
| 2026-05-07 21:26 | -22.91230 | -43.42414 | 4756 ft | 205 kts | 60° |
| 2026-05-07 21:26 | -22.90656 | -43.41061 | 4512 ft | 194 kts | 61° |
| 2026-05-07 21:26 | -22.90099 | -43.39753 | 4241 ft | 188 kts | 61° |
| 2026-05-07 21:26 | -22.89559 | -43.38482 | 4014 ft | 181 kts | 61° |
| 2026-05-07 21:27 | -22.89035 | -43.37248 | 3798 ft | 175 kts | 61° |
| 2026-05-07 21:27 | -22.88540 | -43.36080 | 3594 ft | 169 kts | 61° |
| 2026-05-07 21:27 | -22.88087 | -43.34927 | 3395 ft | 164 kts | 65° |
| 2026-05-07 21:27 | -22.87707 | -43.33747 | 3200 ft | 163 kts | 67° |
| 2026-05-07 21:28 | -22.87349 | -43.32579 | 3002 ft | 162 kts | 66° |
| 2026-05-07 21:28 | -22.86979 | -43.31427 | 2803 ft | 162 kts | 67° |
| 2026-05-07 21:28 | -22.86613 | -43.30288 | 2607 ft | 159 kts | 66° |
| 2026-05-07 21:28 | -22.86263 | -43.29189 | 2439 ft | 149 kts | 67° |
| 2026-05-07 21:29 | -22.85926 | -43.28146 | 2259 ft | 142 kts | 66° |
| 2026-05-07 21:29 | -22.85593 | -43.27119 | 2077 ft | 144 kts | 67° |
| 2026-05-07 21:29 | -22.85424 | -43.26055 | 1896 ft | 147 kts | 92° |
| 2026-05-07 21:29 | -22.85657 | -43.24973 | 1693 ft | 147 kts | 98° |
| 2026-05-07 21:30 | -22.85840 | -43.23871 | 1492 ft | 147 kts | 94° |
| 2026-05-07 21:30 | -22.85978 | -43.22773 | 1295 ft | 146 kts | 95° |
| 2026-05-07 21:30 | -22.86130 | -43.21686 | 1098 ft | 146 kts | 96° |
| 2026-05-07 21:30 | -22.86288 | -43.20599 | 901 ft | 146 kts | 96° |
| 2026-05-07 21:31 | -22.86444 | -43.19497 | 713 ft | 144 kts | 97° |
| 2026-05-07 21:31 | -22.86761 | -43.18474 | 575 ft | 147 kts | 124° |